createdAt,value
2022-12-07T00:01:32.735Z,98386.31
2022-12-07T00:04:05.678Z,98375.56
2022-12-07T00:06:38.445Z,98377.72
2022-12-07T00:09:07.764Z,98386.75
2022-12-07T00:11:35.467Z,98383.31
2022-12-07T00:14:06.712Z,98380.69
2022-12-07T00:16:34.709Z,98383.31
2022-12-07T00:19:03.360Z,98386.09
2022-12-07T00:21:33.869Z,98377.81
2022-12-07T00:24:02.052Z,98377.00
2022-12-07T00:26:31.614Z,98376.53
2022-12-07T00:29:08.407Z,98383.03
2022-12-07T00:31:40.010Z,98387.38
2022-12-07T00:34:19.574Z,98379.47
2022-12-07T00:36:46.932Z,98377.81
2022-12-07T00:39:14.146Z,98378.63
2022-12-07T00:41:41.092Z,98370.88
2022-12-07T00:44:08.042Z,98368.19
2022-12-07T00:46:35.252Z,98367.00
2022-12-07T00:49:02.167Z,98371.88
2022-12-07T00:51:29.582Z,98374.72
2022-12-07T00:53:56.931Z,98372.66
2022-12-07T00:56:29.215Z,98383.63
2022-12-07T00:58:58.733Z,98386.94
2022-12-07T01:01:28.137Z,98377.56
2022-12-07T01:03:55.620Z,98380.34
2022-12-07T01:06:24.383Z,98380.09
2022-12-07T01:08:51.854Z,98384.50
2022-12-07T01:11:23.462Z,98378.63
2022-12-07T01:13:56.267Z,98383.09
2022-12-07T01:16:25.552Z,98388.69
2022-12-07T01:18:54.839Z,98386.84
2022-12-07T01:21:25.315Z,98386.94
2022-12-07T01:23:53.352Z,98384.09
2022-12-07T01:26:24.276Z,98385.56
2022-12-07T01:28:52.561Z,98389.94
2022-12-07T01:31:21.854Z,98385.22
2022-12-07T01:33:52.240Z,98386.06
2022-12-07T01:36:30.907Z,98382.72
2022-12-07T01:39:01.178Z,98384.94
2022-12-07T01:41:32.097Z,98386.44
2022-12-07T01:44:27.940Z,98386.84
2022-12-07T01:47:03.773Z,98393.91
2022-12-07T01:49:42.991Z,98394.16
2022-12-07T01:52:31.221Z,98399.53
2022-12-07T01:55:02.674Z,98391.94
2022-12-07T01:57:32.037Z,98394.25
2022-12-07T01:59:59.573Z,98394.94
2022-12-07T02:02:58.415Z,98401.63
2022-12-07T02:05:27.417Z,98392.25
2022-12-07T02:07:57.138Z,98389.22
2022-12-07T02:10:32.084Z,98392.16
2022-12-07T02:13:16.824Z,98395.22
2022-12-07T02:16:13.380Z,98393.81
2022-12-07T02:19:11.213Z,98393.00
2022-12-07T02:22:01.147Z,98387.19
2022-12-07T02:24:50.560Z,98396.84
2022-12-07T02:27:33.890Z,98389.53
2022-12-07T02:30:09.335Z,98387.03
2022-12-07T02:32:55.476Z,98381.34
2022-12-07T02:35:33.497Z,98379.88
2022-12-07T02:38:09.643Z,98381.50
2022-12-07T02:40:55.622Z,98376.91
2022-12-07T02:43:29.184Z,98375.91
2022-12-07T02:46:00.895Z,98376.75
2022-12-07T02:48:29.216Z,98379.31
2022-12-07T02:50:56.221Z,98374.16
2022-12-07T02:53:36.332Z,98374.56
2022-12-07T02:56:14.451Z,98365.34
2022-12-07T02:59:10.659Z,98371.03
2022-12-07T03:01:52.194Z,98359.31
2022-12-07T03:04:28.680Z,98361.63
2022-12-07T03:07:05.521Z,98357.41
2022-12-07T03:09:42.297Z,98361.75
2022-12-07T03:12:24.475Z,98359.53
2022-12-07T03:15:07.259Z,98369.31
2022-12-07T03:17:37.578Z,98365.84
2022-12-07T03:20:10.556Z,98364.94
2022-12-07T03:22:40.121Z,98359.53
2022-12-07T03:25:11.462Z,98357.22
2022-12-07T03:27:47.149Z,98365.91
2022-12-07T03:30:20.781Z,98359.84
2022-12-07T03:33:07.346Z,98359.47
2022-12-07T03:36:01.624Z,98360.63
2022-12-07T03:38:39.220Z,98356.41
2022-12-07T03:41:12.265Z,98352.94
2022-12-07T03:43:40.251Z,98356.47
2022-12-07T03:46:21.132Z,98351.19
2022-12-07T03:49:09.566Z,98347.78
2022-12-07T03:52:08.079Z,98353.50
2022-12-07T03:54:41.660Z,98354.34
2022-12-07T03:57:10.140Z,98340.59
2022-12-07T03:59:39.449Z,98335.59
2022-12-07T04:02:08.581Z,98324.47
2022-12-07T04:04:36.244Z,98318.47
2022-12-07T04:07:03.828Z,98314.19
2022-12-07T04:09:30.841Z,98312.56
2022-12-07T04:11:57.827Z,98310.03
2022-12-07T04:14:24.791Z,98317.06
2022-12-07T04:16:57.419Z,98322.22
2022-12-07T04:19:30.585Z,98323.22
2022-12-07T04:21:59.709Z,98314.47
2022-12-07T04:24:27.027Z,98320.09
2022-12-07T04:26:54.633Z,98311.75
2022-12-07T04:29:22.502Z,98316.72
2022-12-07T04:31:50.617Z,98309.28
2022-12-07T04:34:18.549Z,98312.31
2022-12-07T04:36:46.845Z,98310.75
2022-12-07T04:39:27.727Z,98300.19
2022-12-07T04:41:55.672Z,98308.91
2022-12-07T04:44:23.271Z,98306.59
2022-12-07T04:46:51.065Z,98306.69
2022-12-07T04:49:19.290Z,98315.31
2022-12-07T04:51:47.195Z,98327.44
2022-12-07T04:54:15.728Z,98323.47
2022-12-07T04:56:43.606Z,98318.53
2022-12-07T04:59:12.281Z,98317.31
2022-12-07T05:01:40.213Z,98325.88
2022-12-07T05:04:07.704Z,98336.25
2022-12-07T05:06:35.327Z,98334.78
2022-12-07T05:09:03.768Z,98331.41
2022-12-07T05:11:40.669Z,98332.72
2022-12-07T05:14:13.116Z,98327.59
2022-12-07T05:16:41.680Z,98325.97
2022-12-07T05:19:09.598Z,98326.13
2022-12-07T05:21:37.937Z,98335.38
2022-12-07T05:24:06.458Z,98334.03
2022-12-07T05:26:35.399Z,98330.22
2022-12-07T05:29:03.398Z,98325.91
2022-12-07T05:31:30.795Z,98328.13
2022-12-07T05:33:58.167Z,98322.31
2022-12-07T05:36:25.550Z,98321.47
2022-12-07T05:38:52.946Z,98325.66
2022-12-07T05:41:39.667Z,98322.50
2022-12-07T05:44:07.389Z,98329.59
2022-12-07T05:46:35.210Z,98327.50
2022-12-07T05:49:02.993Z,98324.53
2022-12-07T05:51:30.328Z,98332.22
2022-12-07T05:53:57.728Z,98334.47
2022-12-07T05:56:25.359Z,98327.13
2022-12-07T05:59:11.125Z,98328.56
2022-12-07T06:01:38.582Z,98334.88
2022-12-07T06:04:05.928Z,98323.75
2022-12-07T06:06:33.379Z,98331.78
2022-12-07T06:09:00.723Z,98336.16
2022-12-07T06:11:46.651Z,98333.59
2022-12-07T06:14:14.162Z,98338.75
2022-12-07T06:16:41.917Z,98336.25
2022-12-07T06:19:09.356Z,98334.63
2022-12-07T06:21:36.692Z,98335.50
2022-12-07T06:24:04.242Z,98333.88
2022-12-07T06:26:31.692Z,98338.31
2022-12-07T06:28:59.112Z,98335.75
2022-12-07T06:31:26.667Z,98345.69
2022-12-07T06:34:08.611Z,98356.59
2022-12-07T06:36:36.047Z,98358.50
2022-12-07T06:39:03.736Z,98348.47
2022-12-07T06:41:31.203Z,98345.59
2022-12-07T06:43:58.516Z,98352.47
2022-12-07T06:46:26.433Z,98344.66
2022-12-07T06:48:53.734Z,98353.53
2022-12-07T06:51:21.055Z,98352.75
2022-12-07T06:53:48.378Z,98350.16
2022-12-07T06:56:15.772Z,98347.47
2022-12-07T06:58:43.117Z,98346.69
2022-12-07T07:01:16.126Z,98350.00
2022-12-07T07:03:43.999Z,98351.00
2022-12-07T07:06:11.940Z,98357.09
2022-12-07T07:08:39.935Z,98358.84
2022-12-07T07:11:08.191Z,98356.56
2022-12-07T07:13:35.356Z,98357.53
2022-12-07T07:16:02.732Z,98361.91
2022-12-07T07:18:30.427Z,98365.47
2022-12-07T07:20:57.497Z,98363.97
2022-12-07T07:23:25.044Z,98363.53
2022-12-07T07:25:51.985Z,98364.19
2022-12-07T07:28:19.412Z,98365.09
2022-12-07T07:30:46.678Z,98367.66
2022-12-07T07:33:13.987Z,98369.59
2022-12-07T07:35:41.025Z,98362.19
2022-12-07T07:38:08.730Z,98365.28
2022-12-07T07:40:36.822Z,98363.03
2022-12-07T07:43:03.964Z,98357.81
2022-12-07T07:45:30.966Z,98356.25
2022-12-07T07:47:58.368Z,98357.81
2022-12-07T07:50:25.323Z,98368.97
2022-12-07T07:52:52.476Z,98359.22
2022-12-07T07:55:19.634Z,98365.53
2022-12-07T07:57:52.881Z,98372.31
2022-12-07T08:00:22.413Z,98384.09
2022-12-07T08:02:49.737Z,98374.78
2022-12-07T08:05:17.243Z,98376.66
2022-12-07T08:07:44.896Z,98375.63
2022-12-07T08:10:13.910Z,98376.34
2022-12-07T08:13:02.495Z,98379.56
2022-12-07T08:15:32.385Z,98373.13
2022-12-07T08:18:00.205Z,98373.63
2022-12-07T08:20:27.648Z,98379.16
2022-12-07T08:22:55.232Z,98371.78
2022-12-07T08:25:26.075Z,98370.28
2022-12-07T08:27:53.756Z,98377.63
2022-12-07T08:30:21.465Z,98374.34
2022-12-07T08:32:49.788Z,98372.88
2022-12-07T08:35:17.476Z,98372.72
2022-12-07T08:37:44.831Z,98376.16
2022-12-07T08:40:16.249Z,98375.31
2022-12-07T08:42:50.898Z,98373.03
2022-12-07T08:45:24.929Z,98373.16
2022-12-07T08:47:58.706Z,98367.88
2022-12-07T08:50:26.816Z,98371.91
2022-12-07T08:52:56.383Z,98377.75
2022-12-07T08:55:23.941Z,98382.50
2022-12-07T08:57:51.690Z,98382.50
2022-12-07T09:00:19.349Z,98380.47
2022-12-07T09:02:47.505Z,98386.06
2022-12-07T09:05:16.906Z,98390.22
2022-12-07T09:07:52.860Z,98388.59
2022-12-07T09:10:20.547Z,98389.53
2022-12-07T09:12:47.889Z,98385.56
2022-12-07T09:15:15.285Z,98390.72
2022-12-07T09:17:42.728Z,98392.84
2022-12-07T09:20:10.827Z,98392.66
2022-12-07T09:22:38.190Z,98401.53
2022-12-07T09:25:06.706Z,98390.56
2022-12-07T09:27:34.109Z,98394.97
2022-12-07T09:30:01.864Z,98402.22
2022-12-07T09:32:29.393Z,98410.09
2022-12-07T09:34:56.883Z,98407.19
2022-12-07T09:37:24.271Z,98402.72
2022-12-07T09:39:51.767Z,98401.09
2022-12-07T09:42:31.441Z,98408.31
2022-12-07T09:44:59.800Z,98411.75
2022-12-07T09:47:27.814Z,98407.28
2022-12-07T09:50:00.274Z,98404.66
2022-12-07T09:52:32.954Z,98402.97
2022-12-07T09:55:03.096Z,98397.13
2022-12-07T09:57:32.858Z,98405.06
2022-12-07T10:00:04.205Z,98389.94
2022-12-07T10:02:39.628Z,98386.59
2022-12-07T10:05:11.798Z,98385.78
2022-12-07T10:07:39.463Z,98389.94
2022-12-07T10:10:19.113Z,98385.84
2022-12-07T10:13:04.526Z,98383.81
2022-12-07T10:15:53.353Z,98378.19
2022-12-07T10:18:33.720Z,98379.22
2022-12-07T10:21:10.078Z,98383.34
2022-12-07T10:24:03.801Z,98387.75
2022-12-07T10:26:47.902Z,98386.34
2022-12-07T10:29:20.186Z,98381.16
2022-12-07T10:32:13.208Z,98370.94
2022-12-07T10:34:42.837Z,98378.16
2022-12-07T10:37:18.147Z,98369.34
2022-12-07T10:39:52.153Z,98370.88
2022-12-07T10:42:29.294Z,98364.81
2022-12-07T10:45:26.121Z,98360.97
2022-12-07T10:48:12.794Z,98357.97
2022-12-07T10:51:21.981Z,98361.16
2022-12-07T10:53:59.477Z,98358.66
2022-12-07T10:56:51.122Z,98347.84
2022-12-07T10:59:29.613Z,98346.06
2022-12-07T11:02:22.766Z,98347.25
2022-12-07T11:05:05.553Z,98347.97
2022-12-07T11:08:11.092Z,98336.69
2022-12-07T11:10:41.269Z,98337.00
2022-12-07T11:13:29.357Z,98335.41
2022-12-07T11:16:18.274Z,98325.94
2022-12-07T11:19:00.439Z,98325.19
2022-12-07T11:21:40.619Z,98322.38
2022-12-07T11:24:11.538Z,98328.91
2022-12-07T11:26:57.289Z,98323.28
2022-12-07T11:29:46.208Z,98317.34
2022-12-07T11:32:16.431Z,98320.47
2022-12-07T11:34:55.624Z,98304.22
2022-12-07T11:37:36.471Z,98309.53
2022-12-07T11:40:21.816Z,98306.16
2022-12-07T11:43:11.932Z,98310.03
2022-12-07T11:45:43.307Z,98302.34
2022-12-07T11:48:20.063Z,98300.97
2022-12-07T11:50:51.409Z,98307.22
2022-12-07T11:53:27.820Z,98301.69
2022-12-07T11:56:15.060Z,98302.91
2022-12-07T11:59:05.128Z,98300.63
2022-12-07T12:01:34.732Z,98293.00
2022-12-07T12:04:11.065Z,98281.19
2022-12-07T12:06:43.680Z,98283.56
2022-12-07T12:15:48.848Z,98267.06
2022-12-07T12:18:22.325Z,98266.81
2022-12-07T12:20:58.018Z,98267.50
2022-12-07T12:23:57.912Z,98263.66
2022-12-07T12:26:27.598Z,98266.56
2022-12-07T12:29:01.983Z,98271.41
2022-12-07T12:31:29.281Z,98269.06
2022-12-07T12:33:59.389Z,98272.59
2022-12-07T12:36:44.251Z,98265.34
2022-12-07T12:39:17.615Z,98258.00
2022-12-07T12:41:47.678Z,98260.69
2022-12-07T12:44:20.769Z,98259.88
2022-12-07T12:47:01.370Z,98265.34
2022-12-07T12:49:33.641Z,98268.09
2022-12-07T12:52:09.946Z,98253.34
2022-12-07T12:54:37.952Z,98259.19
2022-12-07T12:57:25.822Z,98253.03
2022-12-07T12:59:53.066Z,98252.28
2022-12-07T13:02:29.966Z,98248.69
2022-12-07T13:05:01.394Z,98256.09
2022-12-07T13:07:56.481Z,98250.44
2022-12-07T13:10:33.420Z,98244.47
2022-12-07T13:13:15.919Z,98239.38
2022-12-07T13:15:54.933Z,98240.09
2022-12-07T13:18:34.169Z,98235.44
2022-12-07T13:21:10.602Z,98232.41
2022-12-07T13:23:57.055Z,98225.97
2022-12-07T13:26:43.332Z,98228.00
2022-12-07T13:29:17.624Z,98227.34
2022-12-07T13:31:52.925Z,98234.00
2022-12-07T13:34:37.598Z,98217.88
2022-12-07T13:37:26.073Z,98225.38
2022-12-07T13:39:58.487Z,98220.72
2022-12-07T13:42:29.637Z,98224.16
2022-12-07T13:44:58.984Z,98232.09
2022-12-07T13:47:53.050Z,98218.69
2022-12-07T13:50:32.117Z,98221.56
2022-12-07T13:53:01.601Z,98223.59
2022-12-07T13:55:29.835Z,98212.44
2022-12-07T13:57:58.043Z,98211.34
2022-12-07T14:00:27.983Z,98216.41
2022-12-07T14:03:01.413Z,98217.25
2022-12-07T14:05:36.561Z,98218.28
2022-12-07T14:08:11.828Z,98224.94
2022-12-07T14:10:54.839Z,98225.13
2022-12-07T14:13:35.839Z,98223.53
2022-12-07T14:16:05.291Z,98219.19
2022-12-07T14:18:41.120Z,98225.19
2022-12-07T14:21:11.564Z,98223.22
2022-12-07T14:23:40.461Z,98221.22
2022-12-07T14:26:21.456Z,98222.22
2022-12-07T14:28:49.181Z,98220.63
2022-12-07T14:31:29.584Z,98220.22
2022-12-07T14:34:01.134Z,98219.81
2022-12-07T14:36:28.623Z,98221.44
2022-12-07T14:38:58.941Z,98217.69
2022-12-07T14:41:44.969Z,98211.03
2022-12-07T14:44:35.255Z,98208.09
2022-12-07T14:49:48.096Z,98208.41
2022-12-07T14:55:30.732Z,98210.38
2022-12-07T14:57:59.692Z,98213.00
2022-12-07T15:00:28.690Z,98212.34
2022-12-07T15:02:56.583Z,98209.88
2022-12-07T15:05:24.381Z,98212.16
2022-12-07T15:07:52.101Z,98218.00
2022-12-07T15:10:24.421Z,98220.44
2022-12-07T15:12:52.427Z,98213.88
2022-12-07T15:15:19.815Z,98209.22
2022-12-07T15:17:47.383Z,98213.63
2022-12-07T15:20:17.653Z,98209.97
2022-12-07T15:22:45.092Z,98208.31
2022-12-07T15:25:14.778Z,98213.72
2022-12-07T15:27:42.341Z,98209.50
2022-12-07T15:30:09.935Z,98209.00
2022-12-07T15:32:37.465Z,98211.50
2022-12-07T15:35:05.591Z,98213.53
2022-12-07T15:37:33.190Z,98213.53
2022-12-07T15:40:07.150Z,98201.03
2022-12-07T15:42:36.159Z,98199.19
2022-12-07T15:45:05.139Z,98206.44
2022-12-07T15:48:19.803Z,98211.44
2022-12-07T15:50:31.426Z,98206.56
2022-12-07T15:52:58.801Z,98205.34
2022-12-07T15:55:26.132Z,98208.72
2022-12-07T15:57:53.528Z,98195.31
2022-12-07T16:00:21.306Z,98198.28
2022-12-07T16:02:48.762Z,98197.50
2022-12-07T16:05:16.202Z,98190.31
2022-12-07T16:07:43.765Z,98194.81
2022-12-07T16:10:11.323Z,98196.16
2022-12-07T16:12:38.588Z,98186.88
2022-12-07T16:15:06.772Z,98189.91
2022-12-07T16:17:34.198Z,98186.94
2022-12-07T16:20:01.515Z,98189.50
2022-12-07T16:22:28.861Z,98180.53
2022-12-07T16:24:56.215Z,98182.91
2022-12-07T16:27:23.490Z,98176.91
2022-12-07T16:29:50.856Z,98176.91
2022-12-07T16:32:18.208Z,98173.22
2022-12-07T16:34:45.538Z,98175.56
2022-12-07T16:37:12.904Z,98175.97
2022-12-07T16:39:40.496Z,98176.97
2022-12-07T16:42:07.810Z,98167.47
2022-12-07T16:44:35.099Z,98157.00
2022-12-07T16:47:02.660Z,98163.25
2022-12-07T16:49:30.189Z,98157.25
2022-12-07T16:52:18.808Z,98156.25
2022-12-07T16:54:45.664Z,98159.94
2022-12-07T16:57:16.770Z,98150.00
2022-12-07T16:59:49.088Z,98152.03
2022-12-07T17:02:16.452Z,98139.28
2022-12-07T17:04:43.804Z,98141.53
2022-12-07T17:07:11.753Z,98152.16
2022-12-07T17:09:39.095Z,98146.28
2022-12-07T17:12:07.678Z,98141.72
2022-12-07T17:14:53.461Z,98143.66
2022-12-07T17:17:20.935Z,98139.38
2022-12-07T17:19:48.303Z,98128.16
2022-12-07T17:22:15.631Z,98126.59
2022-12-07T17:24:42.999Z,98131.72
2022-12-07T17:27:10.307Z,98131.38
2022-12-07T17:29:37.761Z,98134.75
2022-12-07T17:32:05.811Z,98138.75
2022-12-07T17:34:33.882Z,98144.38
2022-12-07T17:37:01.248Z,98144.81
2022-12-07T17:39:28.880Z,98137.06
2022-12-07T17:42:14.737Z,98136.84
2022-12-07T17:44:42.651Z,98135.66
2022-12-07T17:47:11.267Z,98125.81
2022-12-07T17:49:38.638Z,98128.09
2022-12-07T17:52:24.531Z,98124.13
2022-12-07T17:54:51.849Z,98124.88
2022-12-07T17:57:19.347Z,98130.19
2022-12-07T17:59:46.741Z,98122.09
2022-12-07T18:02:14.092Z,98121.19
2022-12-07T18:04:44.198Z,98124.06
2022-12-07T18:07:11.726Z,98126.81
2022-12-07T18:09:39.243Z,98123.22
2022-12-07T18:12:07.136Z,98122.47
2022-12-07T18:14:34.682Z,98131.38
2022-12-07T18:17:02.343Z,98129.69
2022-12-07T18:19:29.963Z,98136.34
2022-12-07T18:21:57.352Z,98134.75
2022-12-07T18:24:24.791Z,98133.00
2022-12-07T18:26:53.297Z,98128.63
2022-12-07T18:29:21.428Z,98135.78
2022-12-07T18:31:48.845Z,98132.09
2022-12-07T18:34:17.822Z,98143.69
2022-12-07T18:36:47.456Z,98131.75
2022-12-07T18:39:15.837Z,98137.31
2022-12-07T18:41:43.679Z,98133.16
2022-12-07T18:44:13.417Z,98135.75
2022-12-07T18:46:42.413Z,98140.44
2022-12-07T18:49:12.316Z,98135.28
2022-12-07T18:51:39.809Z,98138.50
2022-12-07T18:54:07.632Z,98132.69
2022-12-07T18:56:35.047Z,98134.75
2022-12-07T18:59:22.023Z,98136.53
2022-12-07T19:01:51.641Z,98128.78
2022-12-07T19:04:19.079Z,98127.03
2022-12-07T19:06:48.261Z,98118.59
2022-12-07T19:09:16.617Z,98121.41
2022-12-07T19:11:50.239Z,98127.47
2022-12-07T19:14:27.584Z,98114.22
2022-12-07T19:16:57.362Z,98115.97
2022-12-07T19:19:30.458Z,98123.94
2022-12-07T19:21:57.991Z,98116.25
2022-12-07T19:24:25.361Z,98118.34
2022-12-07T19:26:53.117Z,98113.28
2022-12-07T19:29:20.710Z,98109.81
2022-12-07T19:31:48.167Z,98119.34
2022-12-07T19:34:17.561Z,98110.88
2022-12-07T19:36:45.687Z,98111.38
2022-12-07T19:39:15.561Z,98113.38
2022-12-07T19:41:44.701Z,98111.75
2022-12-07T19:44:18.175Z,98108.38
2022-12-07T19:46:47.307Z,98107.50
2022-12-07T19:49:16.179Z,98115.44
2022-12-07T19:51:45.309Z,98103.41
2022-12-07T19:54:14.868Z,98102.78
2022-12-07T19:56:43.520Z,98096.78
2022-12-07T19:59:12.163Z,98097.56
2022-12-07T20:01:42.768Z,98094.03
2022-12-07T20:04:13.014Z,98094.34
2022-12-07T20:06:40.544Z,98090.19
2022-12-07T20:09:07.957Z,98093.75
2022-12-07T20:11:55.319Z,98089.53
2022-12-07T20:14:23.015Z,98081.91
2022-12-07T20:16:50.613Z,98087.19
2022-12-07T20:19:18.687Z,98080.38
2022-12-07T20:21:46.576Z,98080.53
2022-12-07T20:24:22.715Z,98081.38
2022-12-07T20:26:51.190Z,98075.38
2022-12-07T20:29:21.616Z,98078.84
2022-12-07T20:31:49.622Z,98087.53
2022-12-07T20:34:17.382Z,98079.00
2022-12-07T20:36:44.766Z,98080.06
2022-12-07T20:39:12.514Z,98080.16
2022-12-07T20:41:58.944Z,98077.59
2022-12-07T20:44:26.353Z,98075.94
2022-12-07T20:46:53.695Z,98075.06
2022-12-07T20:49:21.265Z,98067.34
2022-12-07T20:51:48.760Z,98059.50
2022-12-07T20:54:16.263Z,98052.69
2022-12-07T20:56:43.592Z,98062.28
2022-12-07T20:59:14.553Z,98060.66
2022-12-07T21:01:42.773Z,98056.28
2022-12-07T21:04:12.537Z,98046.38
2022-12-07T21:06:39.976Z,98046.56
2022-12-07T21:09:07.661Z,98046.38
2022-12-07T21:11:35.079Z,98044.72
2022-12-07T21:14:02.498Z,98043.78
2022-12-07T21:16:31.068Z,98040.84
2022-12-07T21:19:02.468Z,98037.09
2022-12-07T21:21:31.002Z,98030.16
2022-12-07T21:24:02.443Z,98034.78
2022-12-07T21:26:30.703Z,98038.97
2022-12-07T21:28:58.382Z,98024.31
2022-12-07T21:31:26.849Z,98020.31
2022-12-07T21:33:54.367Z,98021.31
2022-12-07T21:36:23.711Z,98015.94
2022-12-07T21:38:51.576Z,98019.97
2022-12-07T21:41:23.105Z,98025.31
2022-12-07T21:43:50.910Z,98017.34
2022-12-07T21:46:19.212Z,98017.22
2022-12-07T21:48:54.467Z,98014.88
2022-12-07T21:51:23.612Z,98005.16
2022-12-07T21:53:52.511Z,98012.06
2022-12-07T21:56:22.723Z,98012.91
2022-12-07T21:58:51.079Z,98016.59
2022-12-07T22:01:20.293Z,98005.22
2022-12-07T22:03:48.213Z,98011.72
2022-12-07T22:06:17.144Z,98012.25
2022-12-07T22:08:44.607Z,98010.28
2022-12-07T22:11:13.083Z,98012.59
2022-12-07T22:14:04.134Z,98015.19
2022-12-07T22:16:34.967Z,98014.44
2022-12-07T22:19:02.652Z,98005.44
2022-12-07T22:21:30.852Z,98003.34
2022-12-07T22:23:58.291Z,98009.47
2022-12-07T22:26:25.939Z,98017.03
2022-12-07T22:28:53.507Z,98011.13
2022-12-07T22:31:21.358Z,98013.22
2022-12-07T22:33:49.011Z,98008.94
2022-12-07T22:36:16.701Z,98009.09
2022-12-07T22:38:44.274Z,98016.47
2022-12-07T22:41:15.549Z,98010.56
2022-12-07T22:43:42.897Z,97999.78
2022-12-07T22:46:10.313Z,98002.88
2022-12-07T22:48:37.885Z,97998.44
2022-12-07T22:51:05.273Z,97996.19
2022-12-07T22:53:32.653Z,98003.50
2022-12-07T22:56:00.042Z,97998.94
2022-12-07T22:58:27.385Z,98004.44
2022-12-07T23:00:55.793Z,97991.38
2022-12-07T23:03:23.327Z,97997.72
2022-12-07T23:05:52.182Z,97997.31
2022-12-07T23:08:19.577Z,97996.41
2022-12-07T23:10:48.551Z,98001.31
2022-12-07T23:13:32.752Z,97990.81
2022-12-07T23:16:11.544Z,97993.28
2022-12-07T23:18:40.277Z,97984.53
2022-12-07T23:21:08.446Z,97992.84
2022-12-07T23:23:35.839Z,97993.81
2022-12-07T23:26:08.386Z,97991.69
2022-12-07T23:28:36.512Z,97992.19
2022-12-07T23:31:10.807Z,97991.59
2022-12-07T23:33:38.249Z,97991.28
2022-12-07T23:36:16.691Z,97982.66
2022-12-07T23:38:45.663Z,97975.50
2022-12-07T23:41:15.561Z,97966.53
2022-12-07T23:43:43.349Z,97973.09
2022-12-07T23:46:12.870Z,97962.13
2022-12-07T23:48:40.825Z,97960.97
2022-12-07T23:51:09.320Z,97961.22
2022-12-07T23:53:38.755Z,97962.25
2022-12-07T23:56:06.415Z,97952.44
2022-12-07T23:58:34.133Z,97956.16
